Flight Track Log - Related Links

Times and Time Zones

All times are in EDT time to prevent confusion due to time zone crossing. See the OPT325 flight status page for this flight to view local times or setup timezone preferences in your user account.

Time Position Orientation Groundspeed Altitude Reporting Facility
EDT Latitude Longitude Course Direction KTS MPH feet Rate Location/Type
Tue 09:11:02 PM 33.1256 -117.2984 261° West 170 196 1,200  Level FlightAware ADS-B
Tue 09:11:31 PM 33.1221 -117.3268 263° West 212 244 2,700 3,000 Climbing FlightAware ADS-B
Tue 09:12:00 PM 33.1176 -117.3667 263° West 238 274 4,100 2,609 Climbing FlightAware ADS-B
Tue 09:12:17 PM 33.1156 -117.3850 263° West 247 284 4,700 2,294 Climbing FlightAware ADS-B
Tue 09:12:34 PM 33.1129 -117.4099 263° West 251 289 5,400 2,919 Climbing FlightAware ADS-B
Tue 09:12:54 PM 33.1094 -117.4402 263° West 259 298 6,500 2,919 Climbing FlightAware ADS-B
Tue 09:13:11 PM 33.1068 -117.4629 263° West 262 302 7,200 2,690 Climbing FlightAware ADS-B
Tue 09:13:23 PM 33.1002 -117.4813 241° Southwest 268 308 7,800 2,595 Climbing FlightAware ADS-B
Tue 09:13:48 PM 33.0862 -117.5112 241° Southwest 270 311 8,800 2,237 Climbing FlightAware ADS-B
Tue 09:14:22 PM 33.0707 -117.5445 241° Southwest 271 312 10,000 2,943 Climbing FlightAware ADS-B
Tue 09:14:41 PM 33.0528 -117.5815 240° Southwest 268 308 11,400 2,727 Climbing FlightAware ADS-B
Tue 09:14:55 PM 33.0481 -117.5912 240° Southwest 268 308 11,500 4,364 Climbing FlightAware ADS-B
Tue 09:15:03 PM 33.0439 -117.6068 314° West 252 290 13,000 2,754 Climbing FlightAware ADS-B
Tue 09:15:56 PM 33.0858 -117.6624 240° Southwest 267 307 14,300 1,429 Climbing FlightAware ADS-B
Tue 09:16:06 PM 33.0948 -117.6700 325° Northwest 268 308 14,500 882 Climbing FlightAware ADS-B
Tue 09:16:30 PM 33.1174 -117.6890 325° Northwest 276 318 14,800 1,371 Climbing FlightAware ADS-B
Tue 09:16:41 PM 33.1327 -117.7019 325° Northwest 277 319 15,300 2,000 Climbing FlightAware ADS-B
Tue 09:17:06 PM 33.1587 -117.7234 324° Northwest 277 319 16,000 1,256 Climbing FlightAware ADS-B
Tue 09:17:24 PM 33.1661 -117.7319 325° Northwest 278 320 16,200 1,920 Climbing FlightAware ADS-B
Tue 09:17:31 PM 33.1809 -117.7529 311° West 284 327 16,800 1,500 Climbing FlightAware ADS-B
Tue 09:17:32 PM 33.1735 -117.7423 310° West 285 328 16,400 2,903 Descending FlightAware ADS-B
Tue 09:18:02 PM 33.2072 -117.7904 310° West 294 338 18,300 3,652 Climbing FlightAware ADS-B
Tue 09:18:18 PM 33.2196 -117.8084 309° West 291 335 19,200 3,600 Climbing FlightAware ADS-B
Tue 09:18:32 PM 33.2330 -117.8276 310° West 287 330 20,100 3,545 Climbing FlightAware ADS-B
Tue 09:19:02 PM 33.2584 -117.8633 311° West 279 321 21,800 2,933 Climbing FlightAware ADS-B
Tue 09:19:17 PM 33.2688 -117.8778 311° West 279 321 22,300 1,941 Climbing FlightAware ADS-B
Tue 09:19:36 PM 33.2886 -117.9055 311° West 300 345 22,900 1,313 Climbing FlightAware ADS-B
Tue 09:19:49 PM 33.3007 -117.9227 310° West 305 351 23,000 150 Climbing FlightAware ADS-B
Tue 09:20:16 PM 33.3203 -117.9510 310° West 348 400 23,000 638 Level FlightAware ADS-B
Tue 09:20:36 PM 33.3456 -117.9878 309° West 356 410 23,500 1,548 Climbing FlightAware ADS-B
Tue 09:20:47 PM 33.3586 -118.0070 309° West 354 407 23,800 2,195 Climbing FlightAware ADS-B
Tue 09:21:17 PM 33.3927 -118.0466 332° Northwest 356 410 25,000 2,595 Climbing FlightAware ADS-B
Tue 09:21:24 PM 33.4049 -118.0527 341° North 359 413 25,400 3,333 Climbing FlightAware ADS-B
Tue 09:21:26 PM 33.4089 -118.0540 345° North 359 413 25,500 3,000 Climbing FlightAware ADS-B
Tue 09:21:36 PM 33.4255 -118.0569 356° North 363 418 26,000 3,000 Climbing FlightAware ADS-B
Tue 09:21:44 PM 33.4384 -118.0562 North 370 426 26,400 3,273 Climbing FlightAware ADS-B
Tue 09:21:47 PM 33.4420 -118.0556 North 370 426 26,600 3,500 Climbing FlightAware ADS-B
Tue 09:21:56 PM 33.4597 -118.0498 19° North 377 434 27,100 2,769 Climbing FlightAware ADS-B
Tue 09:22:26 PM 33.5076 -118.0280 19° North 378 435 28,400 2,204 Climbing FlightAware ADS-B
Tue 09:22:45 PM 33.5397 -118.0149 19° North 382 440 28,900 1,161 Climbing FlightAware ADS-B
Tue 09:22:57 PM 33.5585 -118.0074 18° North 395 455 29,000 158 Climbing FlightAware ADS-B
Tue 09:23:23 PM 33.6088 -117.9871 19° North 424 488 29,000  Level FlightAware ADS-B
Tue 09:23:26 PM 33.6133 -117.9852 19° North 425 489 29,000  Level FlightAware ADS-B
Tue 09:23:57 PM 33.6698 -117.9614 19° North 438 504 29,000  Level FlightAware ADS-B
Tue 09:24:01 PM 33.6838 -117.9555 19° North 440 506 29,000  Level FlightAware ADS-B
Tue 09:24:26 PM 33.7274 -117.9367 21° North 443 510 29,000  Level FlightAware ADS-B
Tue 09:24:32 PM 33.7037 -117.9470 24° Northeast 447 514 29,000  Level FlightAware ADS-B
Tue 09:24:56 PM 33.7823 -117.9001 36° Northeast 460 529 29,000  Level FlightAware ADS-B
Tue 09:24:58 PM 33.7899 -117.8930 38° Northeast 463 533 29,000  Level FlightAware ADS-B
Tue 09:25:22 PM 33.8250 -117.8546 43° Northeast 461 531 29,000  Level FlightAware ADS-B
Tue 09:25:47 PM 33.8583 -117.8182 42° Northeast 461 531 29,000  Level FlightAware ADS-B
Tue 09:26:03 PM 33.8904 -117.7831 43° Northeast 466 536 29,000  Level FlightAware ADS-B
Tue 09:26:16 PM 33.9080 -117.7638 42° Northeast 467 537 29,000  Level FlightAware ADS-B
Tue 09:26:37 PM 33.9477 -117.7201 42° Northeast 472 543 29,000  Level FlightAware ADS-B
Tue 09:26:46 PM 33.9542 -117.7129 42° Northeast 472 543 29,000  Level FlightAware ADS-B
Tue 09:27:17 PM 34.0046 -117.6571 42° Northeast 477 549 29,000  Level FlightAware ADS-B
Tue 09:27:23 PM 34.0180 -117.6423 43° Northeast 480 552 29,000  Level FlightAware ADS-B
Tue 09:27:29 PM 34.0321 -117.6267 42° Northeast 479 551 29,000  Level FlightAware ADS-B
Tue 09:27:43 PM 34.0437 -117.6137 42° Northeast 483 556 29,000  Level FlightAware ADS-B
Tue 09:28:03 PM 34.0848 -117.5681 43° Northeast 488 562 29,000  Level FlightAware ADS-B
Tue 09:28:15 PM 34.1053 -117.5454 42° Northeast 488 562 29,000  Level FlightAware ADS-B
Tue 09:28:35 PM 34.1194 -117.5297 42° Northeast 489 563 29,000  Level FlightAware ADS-B
Tue 09:28:48 PM 34.1589 -117.4856 43° Northeast 486 559 29,000  Level FlightAware ADS-B
Tue 09:29:19 PM 34.2085 -117.4303 42° Northeast 489 563 29,000  Level FlightAware ADS-B
Tue 09:29:48 PM 34.2400 -117.3951 43° Northeast 481 554 29,000  Level FlightAware ADS-B
Tue 09:30:18 PM 34.3026 -117.3251 43° Northeast 477 549 29,000  Level FlightAware ADS-B
Tue 09:30:49 PM 34.3553 -117.2662 43° Northeast 474 545 29,000  Level FlightAware ADS-B
Tue 09:31:28 PM 34.4087 -117.2062 43° Northeast 471 542 29,000  Level FlightAware ADS-B
Tue 09:32:16 PM 34.4944 -117.1099 43° Northeast 468 539 29,000  Level FlightAware ADS-B
Tue 09:33:24 PM 34.6021 -116.9883 43° Northeast 467 537 29,000  Level FlightAware ADS-B
Tue 09:34:55 PM 34.7314 -116.8392 43° Northeast 468 539 29,000  Level Los Angeles Center
Tue 09:35:56 PM 34.8244 -116.7325 43° Northeast 466 536 29,000 -1,209 Level Los Angeles Center
Tue 09:41:37 PM 35.3433 -116.1013 46° Northeast 438 504 20,900 -1,476 Descending FlightAware ADS-B
Tue 09:42:14 PM 35.3944 -116.0368 47° Northeast 424 488 19,700 -1,941 Descending FlightAware ADS-B
Tue 09:42:45 PM 35.4370 -115.9830 46° Northeast 417 480 18,700 -1,826 Descending FlightAware ADS-B
Tue 09:45:41 PM 35.6650 -115.6932 46° Northeast 391 450 13,400 -1,557 Descending FlightAware ADS-B
Tue 09:46:17 PM 35.7097 -115.6361 47° Northeast 384 442 13,200 -164 Descending FlightAware ADS-B
Tue 09:46:54 PM 35.7607 -115.5875 25° Northeast 373 429 13,200  Level FlightAware ADS-B
Tue 09:47:31 PM 35.8090 -115.5729 29° Northeast 382 440 13,200  Level FlightAware ADS-B
Tue 09:47:44 PM 35.8465 -115.5712 North 359 413 13,200  Level FlightAware ADS-B
Tue 09:48:20 PM 35.9074 -115.5638 15° North 369 425 13,200  Level FlightAware ADS-B
Tue 09:48:56 PM 35.9642 -115.5271 40° Northeast 382 440 13,200 -1,043 Level FlightAware ADS-B
Tue 09:50:15 PM 36.0273 -115.3738 81° East 373 429 11,200 -1,516 Descending FlightAware ADS-B
Tue 09:50:31 PM 36.0284 -115.3452 93° East 369 425 10,800 -1,435 Descending FlightAware ADS-B
Tue 09:51:01 PM 36.0236 -115.2795 93° East 343 395 10,100 -1,200 Descending FlightAware ADS-B
Tue 09:51:51 PM 36.0178 -115.1937 93° East 270 311 9,200 -730 Descending FlightAware ADS-B
Tue 09:52:15 PM 36.0157 -115.1614 94° East 262 302 9,200 -486 Level FlightAware ADS-B
Tue 09:53:05 PM 36.0227 -115.0921 41° Northeast 221 254 8,600 -711 Descending FlightAware ADS-B
Tue 09:53:31 PM 36.0451 -115.0785 25° Northeast 212 244 8,300 -875 Descending FlightAware ADS-B
Tue 09:53:53 PM 36.0652 -115.0671 25° Northeast 212 244 7,900 -1,200 Descending FlightAware ADS-B
Tue 09:54:16 PM 36.0863 -115.0553 24° Northeast 214 246 7,400 -1,393 Descending FlightAware ADS-B
Tue 09:54:49 PM 36.1127 -115.0428 357° North 191 220 6,600 -1,660 Descending FlightAware ADS-B
Tue 09:55:03 PM 36.1269 -115.0484 328° Northwest 185 213 6,100 -1,655 Descending FlightAware ADS-B
Tue 09:55:18 PM 36.1361 -115.0566 322° Northwest 172 198 5,800 -1,448 Descending FlightAware ADS-B
Tue 09:55:32 PM 36.1442 -115.0656 308° West 163 188 5,400 -1,565 Descending FlightAware ADS-B
Tue 09:55:41 PM 36.1479 -115.0733 291° West 151 174 5,200 -1,833 Descending FlightAware ADS-B
Tue 09:56:08 PM 36.1519 -115.0961 273° West 152 175 4,300 -1,925 Descending FlightAware ADS-B
Tue 09:56:34 PM 36.1506 -115.1171 245° Southwest 146 168 3,500 -1,059 Descending FlightAware ADS-B
Tue 09:57:33 PM 36.1219 -115.1437 207° Southwest 111 128 2,800 -667 Descending FlightAware ADS-B
Tue 09:58:04 PM 36.1073 -115.1521 206° Southwest 122 140 2,500 -667 Descending FlightAware ADS-B
Tue 09:58:18 PM 36.0991 -115.1568 207° Southwest 114 131 2,300 -857 Descending FlightAware ADS-B
Tue 10:06:00 PM 36.0801 -115.1523 258° West  Level Estimated

Login

Don't have an account? Register now (free) for customized features, flight alerts, and more!